Time;durP1;ratioP1;P1;durP2;ratioP2;P2;SDS_P1;SDS_P2;PMS_P1;PMS_P2;Temp;Humidity;BMP_temperature;BMP_pressure;BME280_temperature;BME280_humidity;BME280_pressure;Samples;Min_cycle;Max_cycle;Signal;HPM_P1;HPM_P2
2023/12/07 00:02:17;;;;;;;160.80;72.20;;;;;;;;;;106837;1253;60132;-79
2023/12/07 00:04:43;;;;;;;155.80;70.10;;;;;;;;;;106850;1252;59116;-79
2023/12/07 00:07:10;;;;;;;175.30;71.70;;;;;;;;;;106929;1253;59132;-79
2023/12/07 00:09:36;;;;;;;172.80;78.70;;;;;;;;;;106875;1253;59065;-79
2023/12/07 00:12:03;;;;;;;166.20;72.10;;;;;;;;;;106846;1253;58971;-79
2023/12/07 00:14:29;;;;;;;160.40;71.30;;;;;;;;;;106946;1252;60098;-79
2023/12/07 00:16:57;;;;;;;171.50;77.40;;;;;;;;;;106908;1252;58439;-79
2023/12/07 00:19:23;;;;;;;175.20;83.70;;;;;;;;;;106882;1253;60021;-79
2023/12/07 00:21:50;;;;;;;168.90;74.80;;;;;;;;;;107005;1251;58951;-79
2023/12/07 00:24:16;;;;;;;148.20;69.40;;;;;;;;;;107013;1251;58954;-80
2023/12/07 00:26:43;;;;;;;166.30;72.10;;;;;;;;;;106981;1252;58423;-79
2023/12/07 00:29:09;;;;;;;163.70;75.10;;;;;;;;;;106945;1251;60115;-79
2023/12/07 00:31:36;;;;;;;166.20;72.10;;;;;;;;;;107012;1252;59757;-79
2023/12/07 00:34:04;;;;;;;173.20;74.90;;;;;;;;;;106992;1254;60241;-79
2023/12/07 00:36:31;;;;;;;164.90;76.20;;;;;;;;;;107019;1253;58935;-79
2023/12/07 00:38:57;;;;;;;179.80;82.90;;;;;;;;;;106992;1251;59385;-79
2023/12/07 00:41:23;;;;;;;173.50;77.00;;;;;;;;;;106938;1255;58436;-79
2023/12/07 00:43:50;;;;;;;155.00;70.20;;;;;;;;;;106949;1251;58972;-79
2023/12/07 00:46:16;;;;;;;156.80;70.20;;;;;;;;;;106943;1253;59048;-79
2023/12/07 00:48:43;;;;;;;153.20;68.10;;;;;;;;;;106982;1252;58961;-79
2023/12/07 00:51:09;;;;;;;152.10;68.80;;;;;;;;;;106966;1253;58964;-79
2023/12/07 00:53:36;;;;;;;160.50;69.30;;;;;;;;;;106929;1253;59042;-79
2023/12/07 00:56:03;;;;;;;170.10;72.80;;;;;;;;;;106840;1253;59134;-79
2023/12/07 00:58:29;;;;;;;172.20;73.10;;;;;;;;;;107413;1253;60261;-79
2023/12/07 01:00:56;;;;;;;155.50;70.80;;;;;;;;;;106863;1253;60003;-79
2023/12/07 01:03:22;;;;;;;154.30;68.40;;;;;;;;;;106832;1253;61618;-79
2023/12/07 01:05:49;;;;;;;150.30;66.70;;;;;;;;;;106892;1253;60286;-79
2023/12/07 01:08:15;;;;;;;155.40;66.40;;;;;;;;;;106878;1253;60289;-79
2023/12/07 01:10:42;;;;;;;172.70;75.50;;;;;;;;;;106859;1253;59354;-80
2023/12/07 01:13:08;;;;;;;165.40;71.30;;;;;;;;;;106986;1256;58663;-80
2023/12/07 01:15:35;;;;;;;157.80;69.40;;;;;;;;;;106855;1253;58726;-79
2023/12/07 01:18:01;;;;;;;168.10;72.70;;;;;;;;;;106899;1253;58910;-79
2023/12/07 01:20:28;;;;;;;168.60;70.90;;;;;;;;;;106901;1253;59936;-79
2023/12/07 01:22:54;;;;;;;158.00;74.40;;;;;;;;;;107029;1252;59004;-79
2023/12/07 01:25:21;;;;;;;167.20;68.60;;;;;;;;;;106976;1253;58958;-79
2023/12/07 01:27:48;;;;;;;158.20;72.50;;;;;;;;;;106955;1253;61398;-79
2023/12/07 01:30:15;;;;;;;171.70;76.50;;;;;;;;;;106951;1253;59856;-79
2023/12/07 01:32:41;;;;;;;167.30;70.70;;;;;;;;;;106895;1252;59083;-79
2023/12/07 01:35:08;;;;;;;156.80;70.10;;;;;;;;;;106991;1251;60017;-79
2023/12/07 01:37:35;;;;;;;178.50;76.50;;;;;;;;;;107011;1251;58942;-79
2023/12/07 01:40:05;;;;;;;168.80;76.20;;;;;;;;;;106944;1253;61242;-80
2023/12/07 01:42:31;;;;;;;163.40;71.80;;;;;;;;;;106966;1253;60019;-79
2023/12/07 01:44:58;;;;;;;164.00;72.10;;;;;;;;;;106973;1253;58936;-79
2023/12/07 01:47:25;;;;;;;158.40;69.80;;;;;;;;;;106929;1251;59999;-80
2023/12/07 01:49:52;;;;;;;156.90;72.20;;;;;;;;;;106986;1253;59036;-79
2023/12/07 01:52:18;;;;;;;164.90;71.20;;;;;;;;;;106976;1251;59976;-79
2023/12/07 01:54:44;;;;;;;159.60;71.90;;;;;;;;;;106885;1253;59052;-79
2023/12/07 01:57:11;;;;;;;167.80;69.70;;;;;;;;;;106890;1253;60008;-79
2023/12/07 01:59:37;;;;;;;160.20;69.00;;;;;;;;;;106862;1253;58357;-80
2023/12/07 02:02:04;;;;;;;157.70;68.30;;;;;;;;;;106956;1253;59032;-80
2023/12/07 02:04:30;;;;;;;169.80;74.40;;;;;;;;;;106908;1253;58965;-79
2023/12/07 02:06:58;;;;;;;158.70;71.00;;;;;;;;;;106899;1253;60100;-80
2023/12/07 02:09:24;;;;;;;164.80;73.90;;;;;;;;;;106842;1253;60107;-79
2023/12/07 02:11:51;;;;;;;157.20;72.20;;;;;;;;;;106855;1253;59013;-79
2023/12/07 02:14:18;;;;;;;174.40;73.00;;;;;;;;;;106959;1253;60293;-79
2023/12/07 02:16:52;;;;;;;152.40;68.50;;;;;;;;;;106906;1253;62116;-80
2023/12/07 02:19:24;;;;;;;168.40;74.90;;;;;;;;;;107435;1253;59021;-79
2023/12/07 02:21:52;;;;;;;156.70;66.90;;;;;;;;;;106966;1251;59866;-79
2023/12/07 02:24:20;;;;;;;155.70;69.00;;;;;;;;;;106957;1253;58935;-79
2023/12/07 02:26:53;;;;;;;166.20;70.50;;;;;;;;;;107002;1253;61246;-79
2023/12/07 02:29:19;;;;;;;158.40;72.30;;;;;;;;;;107100;1251;61191;-79
2023/12/07 02:31:46;;;;;;;161.70;68.90;;;;;;;;;;109493;1251;58111;-80
2023/12/07 02:34:12;;;;;;;156.10;72.20;;;;;;;;;;109479;1253;58124;-79
2023/12/07 02:36:39;;;;;;;159.40;75.00;;;;;;;;;;109487;1251;58122;-80
2023/12/07 02:39:06;;;;;;;172.40;73.60;;;;;;;;;;109504;1253;58111;-80
2023/12/07 02:41:32;;;;;;;166.10;65.20;;;;;;;;;;109513;1251;59938;-80
2023/12/07 02:43:59;;;;;;;151.70;68.30;;;;;;;;;;109509;1253;58326;-79
2023/12/07 02:46:25;;;;;;;154.60;69.50;;;;;;;;;;109503;1252;60380;-80
2023/12/07 02:48:52;;;;;;;160.90;70.20;;;;;;;;;;109498;1252;58293;-79
2023/12/07 02:51:18;;;;;;;156.80;66.50;;;;;;;;;;107422;1253;59865;-79
2023/12/07 02:53:45;;;;;;;157.50;69.10;;;;;;;;;;106900;1253;58728;-80
2023/12/07 02:56:11;;;;;;;149.10;64.20;;;;;;;;;;106930;1252;58937;-79
2023/12/07 02:58:38;;;;;;;152.10;66.80;;;;;;;;;;106916;1253;58938;-79
2023/12/07 03:01:04;;;;;;;155.40;63.40;;;;;;;;;;106958;1253;59593;-79
2023/12/07 03:03:31;;;;;;;154.20;67.40;;;;;;;;;;106957;1253;60031;-79
2023/12/07 03:05:57;;;;;;;155.90;68.30;;;;;;;;;;106855;1253;61959;-79
2023/12/07 03:08:24;;;;;;;165.70;67.00;;;;;;;;;;106870;1253;61191;-79
2023/12/07 03:10:50;;;;;;;176.40;72.50;;;;;;;;;;106917;1253;58900;-79
2023/12/07 03:13:17;;;;;;;149.40;61.70;;;;;;;;;;106903;1253;58944;-79
2023/12/07 03:15:44;;;;;;;152.80;68.00;;;;;;;;;;106900;1253;58433;-79
2023/12/07 03:18:10;;;;;;;152.10;68.70;;;;;;;;;;106851;1253;62130;-79
2023/12/07 03:20:37;;;;;;;164.70;73.30;;;;;;;;;;106884;1253;60212;-80
2023/12/07 03:23:04;;;;;;;161.20;70.90;;;;;;;;;;106972;1251;59660;-79
2023/12/07 03:25:31;;;;;;;161.40;64.50;;;;;;;;;;108388;1253;58344;-80
2023/12/07 03:27:57;;;;;;;167.70;69.30;;;;;;;;;;109409;1252;58094;-79
2023/12/07 03:30:24;;;;;;;140.10;66.70;;;;;;;;;;106992;1251;61809;-80
2023/12/07 03:32:50;;;;;;;174.60;74.80;;;;;;;;;;106995;1253;59038;-79
2023/12/07 03:35:16;;;;;;;169.90;70.20;;;;;;;;;;106943;1255;59018;-79
2023/12/07 03:37:43;;;;;;;163.00;69.00;;;;;;;;;;106912;1251;60098;-79
2023/12/07 03:40:10;;;;;;;172.00;73.00;;;;;;;;;;106953;1253;58919;-79
2023/12/07 03:42:36;;;;;;;162.00;71.60;;;;;;;;;;106970;1253;58561;-79
2023/12/07 03:45:03;;;;;;;147.10;69.40;;;;;;;;;;106964;1255;59026;-79
2023/12/07 03:47:29;;;;;;;171.90;68.00;;;;;;;;;;106949;1253;59988;-79
2023/12/07 03:49:55;;;;;;;160.20;69.20;;;;;;;;;;106966;1253;59945;-79
2023/12/07 03:52:22;;;;;;;164.40;68.80;;;;;;;;;;106903;1253;59994;-79
2023/12/07 03:54:48;;;;;;;158.60;66.60;;;;;;;;;;106942;1253;59443;-79
2023/12/07 03:57:15;;;;;;;151.00;68.00;;;;;;;;;;106928;1253;60078;-80
2023/12/07 03:59:41;;;;;;;162.00;66.20;;;;;;;;;;106910;1253;59075;-79
2023/12/07 04:02:08;;;;;;;162.40;71.60;;;;;;;;;;106891;1253;59665;-80
2023/12/07 04:04:35;;;;;;;156.90;66.30;;;;;;;;;;108761;1252;58559;-79
2023/12/07 04:07:01;;;;;;;175.50;73.50;;;;;;;;;;109481;1253;58078;-80
2023/12/07 04:09:28;;;;;;;151.30;66.50;;;;;;;;;;108146;1253;60185;-81
2023/12/07 04:11:54;;;;;;;161.60;68.10;;;;;;;;;;106891;1253;59096;-79
2023/12/07 04:14:20;;;;;;;154.00;68.00;;;;;;;;;;106919;1253;58939;-79
2023/12/07 04:16:47;;;;;;;165.50;71.00;;;;;;;;;;106921;1253;60052;-79
2023/12/07 04:19:13;;;;;;;163.00;68.80;;;;;;;;;;106856;1253;60057;-79
2023/12/07 04:21:40;;;;;;;162.20;71.70;;;;;;;;;;106935;1253;60063;-79
2023/12/07 04:24:07;;;;;;;155.60;68.80;;;;;;;;;;106954;1251;58971;-79
2023/12/07 04:26:33;;;;;;;173.50;71.20;;;;;;;;;;106892;1251;60111;-79
2023/12/07 04:29:00;;;;;;;154.50;64.70;;;;;;;;;;106932;1251;61192;-79
2023/12/07 04:31:26;;;;;;;157.50;70.90;;;;;;;;;;106901;1254;61138;-79
2023/12/07 04:33:53;;;;;;;175.70;76.30;;;;;;;;;;107023;1256;59224;-79
2023/12/07 04:36:19;;;;;;;157.00;69.80;;;;;;;;;;106927;1252;59720;-79
2023/12/07 04:38:46;;;;;;;156.40;65.90;;;;;;;;;;106943;1253;58954;-79
2023/12/07 04:41:12;;;;;;;177.00;73.00;;;;;;;;;;106890;1251;58627;-79
2023/12/07 04:43:39;;;;;;;174.00;71.80;;;;;;;;;;106894;1251;58932;-79
2023/12/07 04:46:05;;;;;;;172.70;69.50;;;;;;;;;;106948;1253;60090;-80
2023/12/07 04:48:32;;;;;;;187.40;77.20;;;;;;;;;;106964;1251;59907;-79
2023/12/07 04:50:58;;;;;;;169.60;71.60;;;;;;;;;;106947;1255;59980;-79
2023/12/07 04:53:25;;;;;;;169.10;73.90;;;;;;;;;;106971;1253;59093;-79
2023/12/07 04:55:51;;;;;;;174.40;71.30;;;;;;;;;;106872;1253;60087;-79
2023/12/07 04:58:18;;;;;;;162.30;71.20;;;;;;;;;;106906;1253;60217;-79
2023/12/07 05:00:45;;;;;;;159.60;72.10;;;;;;;;;;106848;1253;59996;-79
2023/12/07 05:03:11;;;;;;;169.70;78.20;;;;;;;;;;106926;1254;61079;-79
2023/12/07 05:05:38;;;;;;;163.40;75.10;;;;;;;;;;106877;1253;61126;-79
2023/12/07 05:08:04;;;;;;;164.40;72.90;;;;;;;;;;106892;1254;58635;-80
2023/12/07 05:10:31;;;;;;;170.20;68.20;;;;;;;;;;106925;1253;59001;-79
2023/12/07 05:12:57;;;;;;;170.60;74.50;;;;;;;;;;106913;1253;60013;-79
2023/12/07 05:15:24;;;;;;;169.50;69.80;;;;;;;;;;106919;1253;58752;-79
2023/12/07 05:17:51;;;;;;;150.60;73.30;;;;;;;;;;106910;1253;61174;-79
2023/12/07 05:20:22;;;;;;;166.70;78.60;;;;;;;;;;106890;1253;60954;-80
2023/12/07 05:22:48;;;;;;;181.00;79.60;;;;;;;;;;107012;1251;59032;-79
2023/12/07 05:25:15;;;;;;;192.00;83.60;;;;;;;;;;106989;1254;59982;-80
2023/12/07 05:27:42;;;;;;;178.90;80.70;;;;;;;;;;106943;1251;60046;-79
2023/12/07 05:30:09;;;;;;;191.60;80.00;;;;;;;;;;106955;1251;59998;-79
2023/12/07 05:32:35;;;;;;;164.10;70.40;;;;;;;;;;106976;1255;61956;-80
2023/12/07 05:35:02;;;;;;;209.30;89.20;;;;;;;;;;106966;1255;58829;-79
2023/12/07 05:37:29;;;;;;;220.10;100.70;;;;;;;;;;106859;1253;61056;-78
2023/12/07 05:39:56;;;;;;;204.40;88.20;;;;;;;;;;106858;1252;58658;-80
2023/12/07 05:42:22;;;;;;;188.80;84.70;;;;;;;;;;106866;1256;58968;-79
2023/12/07 05:44:48;;;;;;;185.40;87.40;;;;;;;;;;106909;1257;58923;-80
2023/12/07 05:47:15;;;;;;;188.90;85.50;;;;;;;;;;106928;1257;59005;-79
2023/12/07 05:49:41;;;;;;;165.50;74.00;;;;;;;;;;107722;1253;60045;-80
2023/12/07 05:52:08;;;;;;;161.70;75.20;;;;;;;;;;107712;1255;61372;-79
2023/12/07 05:54:34;;;;;;;148.90;70.80;;;;;;;;;;107712;1251;58333;-79
2023/12/07 05:57:01;;;;;;;157.40;69.20;;;;;;;;;;107622;1251;60188;-79
2023/12/07 05:59:28;;;;;;;158.90;71.30;;;;;;;;;;106989;1251;58920;-79
2023/12/07 06:01:54;;;;;;;155.20;68.40;;;;;;;;;;106929;1251;60049;-80
2023/12/07 06:04:21;;;;;;;143.70;65.10;;;;;;;;;;106953;1255;59053;-79
2023/12/07 06:06:47;;;;;;;165.20;70.70;;;;;;;;;;106977;1255;59073;-80
2023/12/07 06:09:14;;;;;;;152.90;65.70;;;;;;;;;;107033;1251;60041;-79
2023/12/07 06:11:40;;;;;;;148.50;66.40;;;;;;;;;;107000;1256;58996;-79
2023/12/07 06:14:07;;;;;;;160.70;70.10;;;;;;;;;;106999;1256;59034;-79
2023/12/07 06:16:33;;;;;;;165.90;67.40;;;;;;;;;;107109;1252;58920;-79
2023/12/07 06:19:00;;;;;;;158.80;73.30;;;;;;;;;;107171;1253;58936;-79
2023/12/07 06:21:29;;;;;;;190.00;71.50;;;;;;;;;;107086;1254;60312;-79
2023/12/07 06:23:56;;;;;;;164.60;69.90;;;;;;;;;;107192;1255;58381;-79
2023/12/07 06:26:22;;;;;;;182.50;75.00;;;;;;;;;;107119;1250;59907;-80
2023/12/07 06:28:49;;;;;;;161.80;66.80;;;;;;;;;;107058;1251;58902;-79
2023/12/07 06:31:19;;;;;;;182.30;71.60;;;;;;;;;;107110;1251;59210;-79
2023/12/07 06:33:46;;;;;;;174.50;71.50;;;;;;;;;;107052;1251;162912;-79
2023/12/07 06:36:17;;;;;;;187.50;71.10;;;;;;;;;;107051;1251;59974;-79
2023/12/07 06:38:44;;;;;;;171.10;68.10;;;;;;;;;;107067;1251;60248;-79
2023/12/07 06:41:10;;;;;;;159.80;68.00;;;;;;;;;;107021;1251;59190;-79
2023/12/07 06:43:37;;;;;;;159.50;69.70;;;;;;;;;;107033;1251;58353;-79
2023/12/07 06:46:03;;;;;;;161.30;70.30;;;;;;;;;;107159;1255;58938;-79
2023/12/07 06:48:30;;;;;;;158.00;65.60;;;;;;;;;;107135;1256;58581;-80
2023/12/07 06:50:56;;;;;;;173.60;70.40;;;;;;;;;;107100;1251;59082;-80
2023/12/07 06:53:23;;;;;;;162.70;70.60;;;;;;;;;;107158;1254;60149;-79
2023/12/07 06:55:49;;;;;;;159.50;62.40;;;;;;;;;;107137;1251;58414;-79
2023/12/07 06:58:16;;;;;;;158.10;64.00;;;;;;;;;;107175;1254;61216;-79
2023/12/07 07:00:42;;;;;;;148.20;64.00;;;;;;;;;;107321;1254;59164;-79
2023/12/07 07:03:09;;;;;;;172.20;72.60;;;;;;;;;;107110;1254;58945;-80
2023/12/07 07:05:35;;;;;;;174.90;79.30;;;;;;;;;;107188;1251;58979;-79
2023/12/07 07:08:02;;;;;;;180.20;73.90;;;;;;;;;;108038;1251;59118;-80
2023/12/07 07:10:28;;;;;;;164.50;69.00;;;;;;;;;;108093;1254;60207;-80
2023/12/07 07:12:55;;;;;;;158.60;67.50;;;;;;;;;;107999;1253;59440;-80
2023/12/07 07:15:23;;;;;;;157.20;69.60;;;;;;;;;;108540;1251;58919;-79
2023/12/07 07:17:49;;;;;;;163.80;67.90;;;;;;;;;;109502;1251;58117;-80
2023/12/07 07:20:16;;;;;;;160.50;67.50;;;;;;;;;;109558;1251;58177;-80
2023/12/07 07:22:42;;;;;;;142.70;63.50;;;;;;;;;;109681;1250;58620;-80
2023/12/07 07:25:08;;;;;;;170.30;65.10;;;;;;;;;;109450;1251;58992;-80
2023/12/07 07:27:35;;;;;;;168.30;72.20;;;;;;;;;;108780;1251;58379;-80
2023/12/07 07:30:04;;;;;;;190.20;79.70;;;;;;;;;;108494;1251;58859;-80
2023/12/07 07:32:31;;;;;;;169.80;70.90;;;;;;;;;;108710;1251;58917;-80
2023/12/07 07:34:57;;;;;;;186.20;85.10;;;;;;;;;;108554;1251;60310;-80
2023/12/07 07:37:23;;;;;;;162.50;72.70;;;;;;;;;;109020;1251;58802;-80
2023/12/07 07:39:50;;;;;;;169.00;77.60;;;;;;;;;;108391;1251;60226;-80
2023/12/07 07:42:16;;;;;;;174.50;83.00;;;;;;;;;;107910;1251;58756;-80
2023/12/07 07:44:43;;;;;;;181.70;78.50;;;;;;;;;;107946;1251;60036;-80
2023/12/07 07:47:09;;;;;;;155.00;69.90;;;;;;;;;;107934;1250;58941;-80
2023/12/07 07:49:37;;;;;;;158.20;69.90;;;;;;;;;;107851;1253;58903;-80
2023/12/07 07:52:05;;;;;;;155.30;75.80;;;;;;;;;;107709;1250;60079;-80
2023/12/07 07:54:31;;;;;;;163.40;71.40;;;;;;;;;;107766;1251;59787;-80
2023/12/07 07:56:57;;;;;;;175.60;76.80;;;;;;;;;;107523;1251;60091;-81
2023/12/07 07:59:24;;;;;;;141.20;68.80;;;;;;;;;;107440;1251;60654;-79
2023/12/07 08:01:50;;;;;;;131.20;62.40;;;;;;;;;;107565;1251;59172;-80
2023/12/07 08:04:17;;;;;;;145.20;62.50;;;;;;;;;;107364;1251;59966;-80
2023/12/07 08:06:43;;;;;;;132.90;60.50;;;;;;;;;;107309;1250;59003;-80
2023/12/07 08:09:10;;;;;;;141.80;61.40;;;;;;;;;;107267;1254;59028;-80
2023/12/07 08:11:36;;;;;;;138.00;59.50;;;;;;;;;;107430;1251;59041;-80
2023/12/07 08:14:03;;;;;;;121.20;57.10;;;;;;;;;;107423;1251;60240;-80
2023/12/07 08:16:29;;;;;;;122.80;54.90;;;;;;;;;;107338;1251;60110;-80
2023/12/07 08:18:56;;;;;;;119.20;55.40;;;;;;;;;;107293;1251;58962;-80
2023/12/07 08:21:23;;;;;;;129.30;57.60;;;;;;;;;;107702;1251;59020;-80
2023/12/07 08:23:49;;;;;;;127.70;59.20;;;;;;;;;;107726;1251;62011;-80
2023/12/07 08:26:16;;;;;;;128.70;55.90;;;;;;;;;;107722;1251;58958;-80
2023/12/07 08:28:42;;;;;;;121.70;52.10;;;;;;;;;;107690;1251;59569;-80
2023/12/07 08:31:09;;;;;;;112.30;48.00;;;;;;;;;;107738;1251;59706;-80
2023/12/07 08:33:37;;;;;;;260.80;102.20;;;;;;;;;;107672;1251;58398;-80
2023/12/07 08:36:04;;;;;;;139.90;62.40;;;;;;;;;;107725;1251;61673;-81
2023/12/07 08:38:31;;;;;;;160.20;69.60;;;;;;;;;;107685;1251;59009;-81
2023/12/07 08:40:58;;;;;;;161.70;68.20;;;;;;;;;;107670;1251;59445;-81
2023/12/07 08:43:24;;;;;;;200.00;83.50;;;;;;;;;;107450;1251;60195;-81
2023/12/07 08:45:51;;;;;;;160.70;71.10;;;;;;;;;;107521;1250;60077;-80
2023/12/07 08:48:19;;;;;;;162.20;69.60;;;;;;;;;;107603;1251;60624;-80
2023/12/07 08:50:45;;;;;;;164.80;68.90;;;;;;;;;;107693;1251;58787;-80
2023/12/07 08:53:12;;;;;;;152.00;66.00;;;;;;;;;;107575;1251;59038;-81
2023/12/07 08:55:39;;;;;;;151.90;72.50;;;;;;;;;;107611;1251;58926;-80
2023/12/07 08:58:06;;;;;;;163.90;74.80;;;;;;;;;;107473;1251;59711;-80
2023/12/07 09:00:32;;;;;;;154.30;70.00;;;;;;;;;;107654;1251;60265;-80
2023/12/07 09:02:59;;;;;;;163.00;73.70;;;;;;;;;;107512;1255;58646;-81
2023/12/07 09:05:26;;;;;;;128.90;60.80;;;;;;;;;;107213;1251;58902;-80
2023/12/07 09:07:52;;;;;;;131.30;60.00;;;;;;;;;;107132;1251;59923;-80
2023/12/07 09:10:19;;;;;;;149.20;66.60;;;;;;;;;;107280;1251;60347;-79
2023/12/07 09:12:46;;;;;;;139.00;62.40;;;;;;;;;;109543;1250;61103;-80
2023/12/07 09:15:12;;;;;;;137.10;61.50;;;;;;;;;;109484;1251;58109;-80
2023/12/07 09:17:39;;;;;;;140.10;66.70;;;;;;;;;;109503;1251;58770;-80
2023/12/07 09:20:11;;;;;;;155.60;70.40;;;;;;;;;;109475;1250;58277;-80
2023/12/07 09:22:39;;;;;;;195.40;94.50;;;;;;;;;;109526;1251;58077;-80
2023/12/07 09:25:07;;;;;;;165.00;75.70;;;;;;;;;;109480;1251;62156;-80
2023/12/07 09:27:34;;;;;;;168.10;72.70;;;;;;;;;;109474;1251;59376;-80
2023/12/07 09:30:10;;;;;;;147.10;69.80;;;;;;;;;;107745;1250;60385;-80
2023/12/07 09:32:38;;;;;;;151.50;63.00;;;;;;;;;;107254;1250;58964;-80
2023/12/07 09:35:05;;;;;;;133.60;60.70;;;;;;;;;;107292;1254;60608;-80
2023/12/07 09:37:32;;;;;;;133.80;60.60;;;;;;;;;;107202;1251;62025;-80
2023/12/07 09:39:59;;;;;;;168.00;77.30;;;;;;;;;;107514;1250;60022;-80
2023/12/07 09:42:26;;;;;;;198.60;87.10;;;;;;;;;;107525;1251;60612;-80
2023/12/07 09:44:53;;;;;;;204.90;94.30;;;;;;;;;;108477;1251;58796;-79
2023/12/07 09:47:20;;;;;;;187.10;90.10;;;;;;;;;;109558;1251;58119;-80
2023/12/07 09:49:46;;;;;;;153.70;70.90;;;;;;;;;;109485;1251;58698;-80
2023/12/07 09:52:13;;;;;;;153.10;74.50;;;;;;;;;;109518;1251;58067;-80
2023/12/07 09:54:42;;;;;;;140.30;61.50;;;;;;;;;;107518;1251;58650;-80
2023/12/07 09:57:11;;;;;;;141.40;66.20;;;;;;;;;;107271;1251;58578;-80
2023/12/07 09:59:39;;;;;;;124.90;58.00;;;;;;;;;;107260;1251;59356;-80
2023/12/07 10:02:07;;;;;;;118.50;52.60;;;;;;;;;;107293;1251;60942;-80
2023/12/07 10:04:33;;;;;;;120.00;56.10;;;;;;;;;;107349;1253;59025;-79
2023/12/07 10:07:00;;;;;;;124.40;53.40;;;;;;;;;;107266;1251;60015;-79
2023/12/07 10:09:26;;;;;;;110.00;54.00;;;;;;;;;;107309;1251;58994;-81
2023/12/07 10:12:03;;;;;;;110.90;49.10;;;;;;;;;;107220;1251;59159;-81
2023/12/07 10:14:30;;;;;;;121.60;53.30;;;;;;;;;;109510;1251;62022;-80
2023/12/07 10:16:56;;;;;;;121.90;56.40;;;;;;;;;;109510;1250;58451;-80
2023/12/07 10:19:23;;;;;;;115.00;51.60;;;;;;;;;;108802;1251;61132;-80
2023/12/07 10:21:50;;;;;;;109.30;46.80;;;;;;;;;;107555;1251;59984;-80
2023/12/07 10:24:17;;;;;;;102.90;47.20;;;;;;;;;;107593;1251;59791;-80
2023/12/07 10:26:43;;;;;;;100.90;46.20;;;;;;;;;;107569;1251;59755;-79
2023/12/07 10:29:10;;;;;;;116.80;50.40;;;;;;;;;;107604;1251;58821;-80
2023/12/07 10:31:36;;;;;;;108.40;46.20;;;;;;;;;;107544;1251;60147;-80
2023/12/07 10:34:04;;;;;;;91.70;43.50;;;;;;;;;;107413;1252;60311;-79
2023/12/07 10:36:30;;;;;;;283.20;107.80;;;;;;;;;;107437;1251;60905;-80
2023/12/07 10:38:57;;;;;;;172.10;71.50;;;;;;;;;;107296;1251;59945;-80
2023/12/07 10:41:24;;;;;;;138.80;64.70;;;;;;;;;;107360;1253;60132;-80
2023/12/07 10:43:54;;;;;;;132.20;62.50;;;;;;;;;;107327;1254;58924;-80
2023/12/07 10:46:21;;;;;;;114.20;48.00;;;;;;;;;;107263;1254;60408;-80
2023/12/07 10:48:48;;;;;;;197.50;82.60;;;;;;;;;;107245;1251;58769;-80
2023/12/07 10:51:22;;;;;;;143.50;67.10;;;;;;;;;;109483;1252;62258;-80
2023/12/07 10:53:49;;;;;;;236.80;95.40;;;;;;;;;;109509;1251;58162;-80
2023/12/07 10:56:27;;;;;;;145.10;64.70;;;;;;;;;;109444;1251;59154;-80
2023/12/07 10:58:54;;;;;;;225.10;92.10;;;;;;;;;;109507;1251;58255;-80
2023/12/07 11:01:21;;;;;;;205.10;87.20;;;;;;;;;;109490;1251;58824;-80
2023/12/07 11:03:48;;;;;;;149.00;69.90;;;;;;;;;;108118;1250;60978;-80
2023/12/07 11:06:15;;;;;;;154.70;85.00;;;;;;;;;;107475;1251;59293;-79
2023/12/07 11:08:46;;;;;;;135.30;67.60;;;;;;;;;;107385;1251;62034;-80
2023/12/07 11:11:22;;;;;;;143.00;69.30;;;;;;;;;;107333;1251;59255;-80
2023/12/07 11:13:52;;;;;;;105.80;49.30;;;;;;;;;;107255;1251;61008;-80
2023/12/07 11:16:28;;;;;;;97.80;43.80;;;;;;;;;;107386;1254;62876;-80
2023/12/07 11:18:54;;;;;;;116.90;58.10;;;;;;;;;;107305;1251;61170;-79
2023/12/07 11:21:21;;;;;;;98.00;48.60;;;;;;;;;;107479;1251;59440;-80
2023/12/07 11:23:47;;;;;;;102.90;47.10;;;;;;;;;;107437;1251;59717;-80
2023/12/07 11:26:14;;;;;;;88.60;44.30;;;;;;;;;;107505;1251;61131;-79
2023/12/07 11:28:41;;;;;;;86.40;37.80;;;;;;;;;;107486;1251;59764;-80
2023/12/07 11:31:07;;;;;;;107.50;47.90;;;;;;;;;;107543;1251;60898;-79
2023/12/07 11:33:34;;;;;;;107.40;48.20;;;;;;;;;;107259;1251;60984;-79
2023/12/07 11:36:07;;;;;;;105.90;47.00;;;;;;;;;;107342;1251;59252;-79
2023/12/07 11:38:38;;;;;;;99.20;44.50;;;;;;;;;;107252;1256;60934;-79
2023/12/07 11:41:04;;;;;;;99.90;43.90;;;;;;;;;;107137;1251;61584;-80
2023/12/07 11:43:31;;;;;;;111.90;48.30;;;;;;;;;;106992;1251;59831;-79
2023/12/07 11:45:58;;;;;;;101.70;49.90;;;;;;;;;;107019;1251;59216;-80
2023/12/07 11:48:24;;;;;;;158.70;83.00;;;;;;;;;;107128;1251;59765;-79
2023/12/07 11:50:58;;;;;;;119.00;57.90;;;;;;;;;;107392;1251;59248;-79
2023/12/07 11:53:25;;;;;;;110.00;55.80;;;;;;;;;;106961;1251;61661;-80
2023/12/07 11:55:52;;;;;;;113.80;55.50;;;;;;;;;;107003;1251;60713;-80
2023/12/07 11:58:18;;;;;;;106.40;48.50;;;;;;;;;;106974;1255;59841;-79
2023/12/07 12:00:48;;;;;;;98.70;46.00;;;;;;;;;;107203;1250;59842;-79
2023/12/07 12:03:14;;;;;;;96.50;38.20;;;;;;;;;;107015;1251;61526;-80
2023/12/07 12:05:41;;;;;;;125.60;58.30;;;;;;;;;;106920;1251;60442;-80
2023/12/07 12:08:07;;;;;;;94.20;46.30;;;;;;;;;;106987;1251;59587;-80
2023/12/07 12:10:34;;;;;;;76.80;36.90;;;;;;;;;;107151;1251;61044;-80
2023/12/07 12:13:03;;;;;;;91.60;41.80;;;;;;;;;;106995;1251;59868;-79
2023/12/07 12:15:30;;;;;;;94.90;43.00;;;;;;;;;;107065;1250;60887;-80
2023/12/07 12:17:56;;;;;;;118.80;54.30;;;;;;;;;;106981;1251;61269;-80
2023/12/07 12:20:24;;;;;;;140.00;70.90;;;;;;;;;;108494;1250;59876;-79
2023/12/07 12:22:53;;;;;;;99.30;53.50;;;;;;;;;;106976;1251;60352;-79
2023/12/07 12:25:25;;;;;;;116.80;58.50;;;;;;;;;;107194;1250;59231;-80
2023/12/07 12:27:54;;;;;;;91.30;46.00;;;;;;;;;;107155;1254;59808;-79
2023/12/07 12:30:22;;;;;;;106.20;50.20;;;;;;;;;;107233;1251;60815;-80
2023/12/07 12:32:50;;;;;;;89.40;44.80;;;;;;;;;;106968;1251;60822;-80
2023/12/07 12:35:17;;;;;;;85.60;43.10;;;;;;;;;;107206;1251;61922;-79
2023/12/07 12:37:44;;;;;;;87.10;38.90;;;;;;;;;;106921;1251;59795;-79
2023/12/07 12:40:11;;;;;;;86.00;40.70;;;;;;;;;;107184;1251;59112;-80
2023/12/07 12:42:37;;;;;;;74.70;36.70;;;;;;;;;;106952;1251;61939;-79
2023/12/07 12:45:05;;;;;;;81.10;39.60;;;;;;;;;;106904;1251;60865;-80
2023/12/07 12:47:32;;;;;;;87.10;41.70;;;;;;;;;;107093;1251;59886;-79
2023/12/07 12:50:00;;;;;;;86.60;42.20;;;;;;;;;;107291;1254;60672;-80
2023/12/07 12:52:26;;;;;;;90.10;45.50;;;;;;;;;;107341;1250;60919;-79
2023/12/07 12:54:55;;;;;;;296.10;134.20;;;;;;;;;;107017;1251;61621;-79
2023/12/07 12:57:21;;;;;;;182.10;92.70;;;;;;;;;;107133;1251;60879;-80
2023/12/07 12:59:48;;;;;;;91.80;45.20;;;;;;;;;;107344;1251;61175;-80
2023/12/07 13:02:14;;;;;;;116.80;52.50;;;;;;;;;;107209;1251;60717;-79
2023/12/07 13:04:41;;;;;;;95.30;46.60;;;;;;;;;;107083;1251;59912;-80
2023/12/07 13:07:08;;;;;;;104.40;47.80;;;;;;;;;;107054;1250;62620;-79
2023/12/07 13:09:35;;;;;;;91.20;43.60;;;;;;;;;;107547;1251;59781;-79
2023/12/07 13:12:01;;;;;;;80.40;38.70;;;;;;;;;;108359;1250;59285;-79
2023/12/07 13:14:28;;;;;;;84.20;42.50;;;;;;;;;;107017;1251;59815;-79
2023/12/07 13:16:54;;;;;;;91.50;46.30;;;;;;;;;;107157;1254;59751;-80
2023/12/07 13:19:21;;;;;;;91.40;47.90;;;;;;;;;;107045;1251;59393;-80
2023/12/07 13:21:48;;;;;;;113.20;49.20;;;;;;;;;;107186;1251;61082;-79
2023/12/07 13:24:14;;;;;;;114.90;52.80;;;;;;;;;;107381;1251;61001;-79
2023/12/07 13:26:41;;;;;;;77.50;37.90;;;;;;;;;;107025;1251;59906;-80
2023/12/07 13:29:07;;;;;;;144.90;67.00;;;;;;;;;;107028;1252;59893;-79
2023/12/07 13:31:36;;;;;;;132.00;63.50;;;;;;;;;;107302;1251;59853;-80
2023/12/07 13:34:03;;;;;;;83.70;43.80;;;;;;;;;;107014;1251;61594;-80
2023/12/07 13:36:31;;;;;;;92.30;47.90;;;;;;;;;;106876;1251;60685;-80
2023/12/07 13:38:58;;;;;;;100.70;46.90;;;;;;;;;;106880;1251;60810;-80
2023/12/07 13:41:24;;;;;;;149.90;70.50;;;;;;;;;;107097;1251;62031;-79
2023/12/07 13:43:51;;;;;;;90.50;44.50;;;;;;;;;;106980;1250;62108;-79
2023/12/07 13:46:17;;;;;;;120.80;61.40;;;;;;;;;;107023;1251;60775;-80
2023/12/07 13:48:45;;;;;;;109.90;51.30;;;;;;;;;;106908;1251;61563;-79
2023/12/07 13:51:12;;;;;;;121.60;57.70;;;;;;;;;;107174;1251;60985;-79
2023/12/07 13:53:39;;;;;;;144.60;71.50;;;;;;;;;;107301;1251;60875;-80